sensor_id;sensor_type;location;lat;lon;timestamp;pressure;altitude;pressure_sealevel;temperature;humidity
78210;BME280;67485;48.816;9.930;2023-02-02T00:00:01;97319.31;;;2.84;91.18
78210;BME280;67485;48.816;9.930;2023-02-02T00:02:27;97315.78;;;2.75;91.70
78210;BME280;67485;48.816;9.930;2023-02-02T00:04:53;97304.53;;;2.72;92.50
78210;BME280;67485;48.816;9.930;2023-02-02T00:07:18;97318.38;;;2.77;92.22
78210;BME280;67485;48.816;9.930;2023-02-02T00:09:44;97305.44;;;2.75;92.23
78210;BME280;67485;48.816;9.930;2023-02-02T00:12:09;97302.78;;;2.72;92.87
78210;BME280;67485;48.816;9.930;2023-02-02T00:14:35;97304.53;;;2.73;92.59
78210;BME280;67485;48.816;9.930;2023-02-02T00:17:01;97305.44;;;2.75;92.48
78210;BME280;67485;48.816;9.930;2023-02-02T00:19:28;97307.13;;;2.73;92.53
78210;BME280;67485;48.816;9.930;2023-02-02T00:21:55;97315.72;;;2.72;92.93
78210;BME280;67485;48.816;9.930;2023-02-02T00:24:21;97310.63;;;2.79;92.52
78210;BME280;67485;48.816;9.930;2023-02-02T00:26:50;97305.44;;;2.75;92.32
78210;BME280;67485;48.816;9.930;2023-02-02T00:29:24;97307.13;;;2.72;92.63
78210;BME280;67485;48.816;9.930;2023-02-02T00:31:51;97310.53;;;2.69;92.86
78210;BME280;67485;48.816;9.930;2023-02-02T00:34:17;97313.13;;;2.69;92.91
78210;BME280;67485;48.816;9.930;2023-02-02T00:36:46;97319.13;;;2.68;93.15
78210;BME280;67485;48.816;9.930;2023-02-02T00:39:15;97311.41;;;2.71;92.79
78210;BME280;67485;48.816;9.930;2023-02-02T00:41:41;97315.72;;;2.72;93.66
78210;BME280;67485;48.816;9.930;2023-02-02T00:44:07;97319.09;;;2.65;93.04
78210;BME280;67485;48.816;9.930;2023-02-02T00:46:52;97308.78;;;2.68;93.54
78210;BME280;67485;48.816;9.930;2023-02-02T00:49:17;97305.31;;;2.66;94.05
78210;BME280;67485;48.816;9.930;2023-02-02T00:51:43;97319.13;;;2.68;93.67
78210;BME280;67485;48.816;9.930;2023-02-02T00:54:09;97310.47;;;2.65;94.33
78210;BME280;67485;48.816;9.930;2023-02-02T00:56:35;97304.47;;;2.67;94.08
78210;BME280;67485;48.816;9.930;2023-02-02T00:59:00;97299.25;;;2.64;94.09
78210;BME280;67485;48.816;9.930;2023-02-02T01:01:26;97292.38;;;2.68;94.26
78210;BME280;67485;48.816;9.930;2023-02-02T01:03:52;97305.31;;;2.66;94.27
78210;BME280;67485;48.816;9.930;2023-02-02T01:06:18;97301.03;;;2.68;94.73
78210;BME280;67485;48.816;9.930;2023-02-02T01:08:43;97307.03;;;2.64;94.62
78210;BME280;67485;48.816;9.930;2023-02-02T01:11:09;97315.66;;;2.66;94.97
78210;BME280;67485;48.816;9.930;2023-02-02T01:13:35;97310.50;;;2.68;94.20
78210;BME280;67485;48.816;9.930;2023-02-02T01:16:02;97319.13;;;2.68;94.58
78210;BME280;67485;48.816;9.930;2023-02-02T01:18:29;97307.88;;;2.63;94.20
78210;BME280;67485;48.816;9.930;2023-02-02T01:20:57;97316.47;;;2.62;94.40
78210;BME280;67485;48.816;9.930;2023-02-02T01:23:23;97316.50;;;2.64;94.13
78210;BME280;67485;48.816;9.930;2023-02-02T01:25:59;97312.16;;;2.61;94.96
78210;BME280;67485;48.816;9.930;2023-02-02T01:28:26;97305.22;;;2.60;95.01
78210;BME280;67485;48.816;9.930;2023-02-02T01:30:53;97306.13;;;2.61;94.78
78210;BME280;67485;48.816;9.930;2023-02-02T01:33:20;97310.38;;;2.57;95.14
78210;BME280;67485;48.816;9.930;2023-02-02T01:35:54;97310.41;;;2.60;95.14
78210;BME280;67485;48.816;9.930;2023-02-02T01:38:22;97313.88;;;2.61;94.85
78210;BME280;67485;48.816;9.930;2023-02-02T01:40:53;97310.41;;;2.60;95.12
78210;BME280;67485;48.816;9.930;2023-02-02T01:45:54;97309.53;;;2.58;95.04
78210;BME280;67485;48.816;9.930;2023-02-02T01:48:28;97300.03;;;2.57;95.22
78210;BME280;67485;48.816;9.930;2023-02-02T01:50:59;97320.72;;;2.57;95.62
78210;BME280;67485;48.816;9.930;2023-02-02T01:53:26;97312.06;;;2.55;95.69
78210;BME280;67485;48.816;9.930;2023-02-02T01:55:53;97318.91;;;2.53;96.02
78210;BME280;67485;48.816;9.930;2023-02-02T01:58:25;97311.97;;;2.49;96.04
78210;BME280;67485;48.816;9.930;2023-02-02T02:00:52;97322.31;;;2.46;95.84
78210;BME280;67485;48.816;9.930;2023-02-02T02:03:24;97315.38;;;2.45;96.34
78210;BME280;67485;48.816;9.930;2023-02-02T02:05:54;97326.56;;;2.42;96.28
78210;BME280;67485;48.816;9.930;2023-02-02T02:08:25;97321.38;;;2.40;96.92
78210;BME280;67485;48.816;9.930;2023-02-02T02:10:53;97324.81;;;2.41;96.92
78210;BME280;67485;48.816;9.930;2023-02-02T02:13:21;97323.09;;;2.41;97.12
78210;BME280;67485;48.816;9.930;2023-02-02T02:16:23;97331.78;;;2.47;97.65
78210;BME280;67485;48.816;9.930;2023-02-02T02:21:37;97316.22;;;2.42;96.81
78210;BME280;67485;48.816;9.930;2023-02-02T02:30:32;97324.81;;;2.39;97.03
78210;BME280;67485;48.816;9.930;2023-02-02T02:33:06;97313.56;;;2.37;97.75
78210;BME280;67485;48.816;9.930;2023-02-02T02:35:56;97318.72;;;2.37;97.26
78210;BME280;67485;48.816;9.930;2023-02-02T02:40:57;97303.19;;;2.34;98.03
78210;BME280;67485;48.816;9.930;2023-02-02T02:43:31;97303.22;;;2.37;98.38
78210;BME280;67485;48.816;9.930;2023-02-02T02:45:59;97305.78;;;2.36;97.88
78210;BME280;67485;48.816;9.930;2023-02-02T02:48:27;97296.28;;;2.36;98.03
78210;BME280;67485;48.816;9.930;2023-02-02T02:51:02;97289.47;;;2.41;98.61
78210;BME280;67485;48.816;9.930;2023-02-02T02:53:30;97293.78;;;2.42;97.99
78210;BME280;67485;48.816;9.930;2023-02-02T02:56:14;97298.97;;;2.42;98.00
78210;BME280;67485;48.816;9.930;2023-02-02T02:59:20;97294.69;;;2.43;98.43
78210;BME280;67485;48.816;9.930;2023-02-02T03:04:38;97303.41;;;2.53;98.18
78210;BME280;67485;48.816;9.930;2023-02-02T03:07:33;97303.38;;;2.50;97.81
78210;BME280;67485;48.816;9.930;2023-02-02T03:10:01;97301.69;;;2.52;98.09
78210;BME280;67485;48.816;9.930;2023-02-02T03:12:29;97292.22;;;2.54;98.22
78210;BME280;67485;48.816;9.930;2023-02-02T03:14:54;97293.94;;;2.53;97.76
78210;BME280;67485;48.816;9.930;2023-02-02T03:17:20;97297.38;;;2.52;97.75
78210;BME280;67485;48.816;9.930;2023-02-02T03:19:46;97297.34;;;2.51;97.88
78210;BME280;67485;48.816;9.930;2023-02-02T03:22:12;97310.38;;;2.57;97.95
78210;BME280;67485;48.816;9.930;2023-02-02T03:24:38;97288.00;;;2.62;98.17
78210;BME280;67485;48.816;9.930;2023-02-02T03:27:03;97289.69;;;2.60;97.98
78210;BME280;67485;48.816;9.930;2023-02-02T03:29:29;97290.53;;;2.57;97.45
78210;BME280;67485;48.816;9.930;2023-02-02T03:31:55;97298.22;;;2.51;97.16
78210;BME280;67485;48.816;9.930;2023-02-02T03:34:20;97307.72;;;2.51;97.57
78210;BME280;67485;48.816;9.930;2023-02-02T03:36:46;97307.63;;;2.46;97.92
78210;BME280;67485;48.816;9.930;2023-02-02T03:39:11;97310.22;;;2.45;97.84
78210;BME280;67485;48.816;9.930;2023-02-02T03:41:37;97312.78;;;2.43;98.07
78210;BME280;67485;48.816;9.930;2023-02-02T03:44:03;97321.41;;;2.43;98.12
78210;BME280;67485;48.816;9.930;2023-02-02T03:46:28;97316.22;;;2.42;98.34
78210;BME280;67485;48.816;9.930;2023-02-02T03:48:54;97326.59;;;2.45;98.73
78210;BME280;67485;48.816;9.930;2023-02-02T03:51:20;97330.09;;;2.49;98.48
78210;BME280;67485;48.816;9.930;2023-02-02T03:53:46;97330.94;;;2.48;98.75
78210;BME280;67485;48.816;9.930;2023-02-02T03:56:12;97332.66;;;2.47;99.09
78210;BME280;67485;48.816;9.930;2023-02-02T03:58:38;97331.81;;;2.48;99.02
78210;BME280;67485;48.816;9.930;2023-02-02T04:01:05;97328.41;;;2.49;99.49
78210;BME280;67485;48.816;9.930;2023-02-02T04:03:31;97339.59;;;2.50;99.07
78210;BME280;67485;48.816;9.930;2023-02-02T04:05:57;97331.00;;;2.52;99.47
78210;BME280;67485;48.816;9.930;2023-02-02T04:08:23;97341.38;;;2.54;99.03
78210;BME280;67485;48.816;9.930;2023-02-02T04:10:48;97337.03;;;2.51;98.98
78210;BME280;67485;48.816;9.930;2023-02-02T04:13:14;97339.69;;;2.56;99.22
78210;BME280;67485;48.816;9.930;2023-02-02T04:15:40;97348.28;;;2.53;98.76
78210;BME280;67485;48.816;9.930;2023-02-02T04:18:05;97343.13;;;2.55;99.32
78210;BME280;67485;48.816;9.930;2023-02-02T04:20:31;97348.34;;;2.58;98.71
78210;BME280;67485;48.816;9.930;2023-02-02T04:22:57;97349.22;;;2.60;99.20
78210;BME280;67485;48.816;9.930;2023-02-02T04:25:23;97350.94;;;2.59;98.96
78210;BME280;67485;48.816;9.930;2023-02-02T04:27:48;97352.69;;;2.62;99.00
78210;BME280;67485;48.816;9.930;2023-02-02T04:30:14;97348.44;;;2.64;98.36
78210;BME280;67485;48.816;9.930;2023-02-02T04:32:40;97352.72;;;2.65;98.62
78210;BME280;67485;48.816;9.930;2023-02-02T04:35:06;97352.72;;;2.65;98.06
78210;BME280;67485;48.816;9.930;2023-02-02T04:37:32;97346.72;;;2.66;98.12
78210;BME280;67485;48.816;9.930;2023-02-02T04:39:57;97359.66;;;2.68;97.93
78210;BME280;67485;48.816;9.930;2023-02-02T04:42:23;97364.84;;;2.68;98.19
78210;BME280;67485;48.816;9.930;2023-02-02T04:44:48;97372.59;;;2.66;98.46
78210;BME280;67485;48.816;9.930;2023-02-02T04:47:14;97366.56;;;2.66;98.08
78210;BME280;67485;48.816;9.930;2023-02-02T04:49:40;97372.66;;;2.69;97.94
78210;BME280;67485;48.816;9.930;2023-02-02T04:52:05;97382.09;;;2.69;98.10
78210;BME280;67485;48.816;9.930;2023-02-02T04:54:31;97374.31;;;2.64;98.11
78210;BME280;67485;48.816;9.930;2023-02-02T04:56:57;97379.53;;;2.70;98.08
78210;BME280;67485;48.816;9.930;2023-02-02T04:59:23;97383.00;;;2.69;98.32
78210;BME280;67485;48.816;9.930;2023-02-02T05:01:49;97384.69;;;2.67;98.23
78210;BME280;67485;48.816;9.930;2023-02-02T05:04:15;97371.72;;;2.64;98.11
78210;BME280;67485;48.816;9.930;2023-02-02T05:06:41;97391.53;;;2.62;98.62
78210;BME280;67485;48.816;9.930;2023-02-02T05:09:06;97386.38;;;2.65;98.86
78210;BME280;67485;48.816;9.930;2023-02-02T05:11:32;97384.66;;;2.64;99.00
78210;BME280;67485;48.816;9.930;2023-02-02T05:13:58;97388.13;;;2.66;99.32
78210;BME280;67485;48.816;9.930;2023-02-02T05:16:24;97383.78;;;2.65;99.07
78210;BME280;67485;48.816;9.930;2023-02-02T05:18:51;97387.28;;;2.67;99.19
78210;BME280;67485;48.816;9.930;2023-02-02T05:21:18;97383.00;;;2.71;99.35
78210;BME280;67485;48.816;9.930;2023-02-02T05:23:43;97382.13;;;2.70;98.77
78210;BME280;67485;48.816;9.930;2023-02-02T05:26:20;97387.28;;;2.69;99.12
78210;BME280;67485;48.816;9.930;2023-02-02T05:28:47;97384.69;;;2.67;99.21
78210;BME280;67485;48.816;9.930;2023-02-02T05:31:13;97386.41;;;2.67;99.43
78210;BME280;67485;48.816;9.930;2023-02-02T05:33:38;97398.47;;;2.66;98.80
78210;BME280;67485;48.816;9.930;2023-02-02T05:36:05;97393.28;;;2.66;99.45
78210;BME280;67485;48.816;9.930;2023-02-02T05:38:31;97408.81;;;2.66;98.68
78210;BME280;67485;48.816;9.930;2023-02-02T05:40:56;97405.41;;;2.70;99.27
78210;BME280;67485;48.816;9.930;2023-02-02T05:43:27;97403.69;;;2.69;99.36
78210;BME280;67485;48.816;9.930;2023-02-02T05:45:53;97406.31;;;2.72;99.25
78210;BME280;67485;48.816;9.930;2023-02-02T05:48:19;97408.91;;;2.72;99.18
78210;BME280;67485;48.816;9.930;2023-02-02T05:51:06;97425.31;;;2.73;99.58
78210;BME280;67485;48.816;9.930;2023-02-02T05:53:35;97409.81;;;2.76;99.07
78210;BME280;67485;48.816;9.930;2023-02-02T05:56:01;97409.81;;;2.74;99.15
78210;BME280;67485;48.816;9.930;2023-02-02T05:58:26;97405.50;;;2.76;99.20
78210;BME280;67485;48.816;9.930;2023-02-02T06:00:53;97419.34;;;2.79;98.96
78210;BME280;67485;48.816;9.930;2023-02-02T06:03:19;97407.31;;;2.81;99.11
78210;BME280;67485;48.816;9.930;2023-02-02T06:05:44;97427.13;;;2.79;99.03
78210;BME280;67485;48.816;9.930;2023-02-02T06:08:10;97417.66;;;2.81;99.05
78210;BME280;67485;48.816;9.930;2023-02-02T06:10:40;97419.31;;;2.75;99.32
78210;BME280;67485;48.816;9.930;2023-02-02T06:13:06;97421.03;;;2.76;99.58
78210;BME280;67485;48.816;9.930;2023-02-02T06:15:32;97427.09;;;2.77;99.20
78210;BME280;67485;48.816;9.930;2023-02-02T06:17:59;97435.72;;;2.78;99.56
78210;BME280;67485;48.816;9.930;2023-02-02T06:20:25;97436.63;;;2.81;99.16
78210;BME280;67485;48.816;9.930;2023-02-02T06:22:51;97429.78;;;2.85;99.22
78210;BME280;67485;48.816;9.930;2023-02-02T06:25:17;97447.88;;;2.82;99.19
78210;BME280;67485;48.816;9.930;2023-02-02T06:27:42;97445.31;;;2.83;99.24
78210;BME280;67485;48.816;9.930;2023-02-02T06:30:12;97438.41;;;2.84;99.26
78210;BME280;67485;48.816;9.930;2023-02-02T06:32:38;97434.94;;;2.82;99.43
78210;BME280;67485;48.816;9.930;2023-02-02T06:35:04;97440.06;;;2.80;99.02
78210;BME280;67485;48.816;9.930;2023-02-02T06:37:30;97441.75;;;2.76;99.24
78210;BME280;67485;48.816;9.930;2023-02-02T06:39:56;97436.56;;;2.76;99.65
78210;BME280;67485;48.816;9.930;2023-02-02T06:42:21;97431.31;;;2.70;99.59
78210;BME280;67485;48.816;9.930;2023-02-02T06:44:47;97439.94;;;2.71;99.61
78210;BME280;67485;48.816;9.930;2023-02-02T06:47:13;97441.63;;;2.67;99.50
78210;BME280;67485;48.816;9.930;2023-02-02T06:49:38;97442.47;;;2.66;99.77
78210;BME280;67485;48.816;9.930;2023-02-02T06:52:04;97439.03;;;2.67;99.97
78210;BME280;67485;48.816;9.930;2023-02-02T06:54:31;97451.97;;;2.67;99.88
78210;BME280;67485;48.816;9.930;2023-02-02T06:56:56;97451.06;;;2.65;99.79
78210;BME280;67485;48.816;9.930;2023-02-02T06:59:22;97446.72;;;2.61;100.00
78210;BME280;67485;48.816;9.930;2023-02-02T07:01:49;97455.38;;;2.63;99.99
78210;BME280;67485;48.816;9.930;2023-02-02T07:04:17;97451.94;;;2.64;99.90
78210;BME280;67485;48.816;9.930;2023-02-02T07:06:44;97451.88;;;2.61;100.00
78210;BME280;67485;48.816;9.930;2023-02-02T07:09:10;97454.44;;;2.59;99.79
78210;BME280;67485;48.816;9.930;2023-02-02T07:11:36;97458.75;;;2.59;100.00
78210;BME280;67485;48.816;9.930;2023-02-02T07:14:02;97460.56;;;2.63;100.00
78210;BME280;67485;48.816;9.930;2023-02-02T07:16:29;97459.66;;;2.61;100.00
78210;BME280;67485;48.816;9.930;2023-02-02T07:18:54;97460.50;;;2.60;100.00
78210;BME280;67485;48.816;9.930;2023-02-02T07:21:23;97460.47;;;2.57;100.00
78210;BME280;67485;48.816;9.930;2023-02-02T07:23:49;97462.19;;;2.58;99.99
78210;BME280;67485;48.816;9.930;2023-02-02T07:26:17;97468.16;;;2.55;100.00
78210;BME280;67485;48.816;9.930;2023-02-02T07:28:44;97451.84;;;2.58;100.00
78210;BME280;67485;48.816;9.930;2023-02-02T07:31:18;97469.91;;;2.56;100.00
78210;BME280;67485;48.816;9.930;2023-02-02T07:33:45;97470.81;;;2.57;99.72
78210;BME280;67485;48.816;9.930;2023-02-02T07:36:13;97467.38;;;2.58;100.00
78210;BME280;67485;48.816;9.930;2023-02-02T07:38:41;97469.91;;;2.56;100.00
78210;BME280;67485;48.816;9.930;2023-02-02T07:41:07;97480.34;;;2.61;100.00
78210;BME280;67485;48.816;9.930;2023-02-02T07:43:32;97476.06;;;2.63;100.00
78210;BME280;67485;48.816;9.930;2023-02-02T07:46:00;97476.00;;;2.60;100.00
78210;BME280;67485;48.816;9.930;2023-02-02T07:48:29;97481.25;;;2.63;100.00
78210;BME280;67485;48.816;9.930;2023-02-02T07:51:16;97483.00;;;2.64;100.00
78210;BME280;67485;48.816;9.930;2023-02-02T07:53:47;97476.94;;;2.65;100.00
78210;BME280;67485;48.816;9.930;2023-02-02T07:56:21;97475.25;;;2.66;100.00
78210;BME280;67485;48.816;9.930;2023-02-02T07:58:47;97468.41;;;2.71;100.00
78210;BME280;67485;48.816;9.930;2023-02-02T08:01:14;97469.28;;;2.71;100.00
78210;BME280;67485;48.816;9.930;2023-02-02T08:03:41;97468.44;;;2.72;100.00
78210;BME280;67485;48.816;9.930;2023-02-02T08:06:09;97471.94;;;2.76;100.00
78210;BME280;67485;48.816;9.930;2023-02-02T08:08:36;97467.69;;;2.80;100.00
78210;BME280;67485;48.816;9.930;2023-02-02T08:11:01;97465.94;;;2.79;100.00
78210;BME280;67485;48.816;9.930;2023-02-02T08:13:27;97469.44;;;2.81;100.00
78210;BME280;67485;48.816;9.930;2023-02-02T08:15:56;97464.28;;;2.84;100.00
78210;BME280;67485;48.816;9.930;2023-02-02T08:18:22;97478.16;;;2.89;100.00
78210;BME280;67485;48.816;9.930;2023-02-02T08:20:48;97464.38;;;2.90;100.00
78210;BME280;67485;48.816;9.930;2023-02-02T08:23:14;97478.22;;;2.92;100.00
78210;BME280;67485;48.816;9.930;2023-02-02T08:25:41;97478.22;;;2.92;100.00
78210;BME280;67485;48.816;9.930;2023-02-02T08:28:07;97479.16;;;2.97;100.00
78210;BME280;67485;48.816;9.930;2023-02-02T08:30:35;97491.28;;;3.03;100.00
78210;BME280;67485;48.816;9.930;2023-02-02T08:33:01;97499.94;;;3.02;100.00
78210;BME280;67485;48.816;9.930;2023-02-02T08:35:27;97504.28;;;3.04;100.00
78210;BME280;67485;48.816;9.930;2023-02-02T08:37:53;97497.44;;;3.08;100.00
78210;BME280;67485;48.816;9.930;2023-02-02T08:40:18;97508.66;;;3.08;100.00
78210;BME280;67485;48.816;9.930;2023-02-02T08:42:44;97515.59;;;3.11;100.00
78210;BME280;67485;48.816;9.930;2023-02-02T08:45:11;97511.34;;;3.15;100.00
78210;BME280;67485;48.816;9.930;2023-02-02T08:47:37;97521.63;;;3.12;100.00
78210;BME280;67485;48.816;9.930;2023-02-02T08:50:03;97518.19;;;3.13;100.00
78210;BME280;67485;48.816;9.930;2023-02-02T08:52:29;97526.81;;;3.12;100.00
78210;BME280;67485;48.816;9.930;2023-02-02T08:54:54;97528.53;;;3.10;100.00
78210;BME280;67485;48.816;9.930;2023-02-02T08:57:20;97513.00;;;3.11;100.00
78210;BME280;67485;48.816;9.930;2023-02-02T08:59:46;97518.25;;;3.16;100.00
78210;BME280;67485;48.816;9.930;2023-02-02T09:02:11;97507.94;;;3.19;100.00
78210;BME280;67485;48.816;9.930;2023-02-02T09:04:38;97514.00;;;3.21;100.00
78210;BME280;67485;48.816;9.930;2023-02-02T09:07:05;97506.25;;;3.21;100.00
78210;BME280;67485;48.816;9.930;2023-02-02T09:09:31;97520.97;;;3.25;100.00
78210;BME280;67485;48.816;9.930;2023-02-02T09:11:56;97508.94;;;3.30;100.00
78210;BME280;67485;48.816;9.930;2023-02-02T09:14:22;97502.06;;;3.31;100.00
78210;BME280;67485;48.816;9.930;2023-02-02T09:16:48;97502.91;;;3.31;100.00
78210;BME280;67485;48.816;9.930;2023-02-02T09:19:13;97497.75;;;3.33;100.00
78210;BME280;67485;48.816;9.930;2023-02-02T09:21:39;97509.00;;;3.33;100.00
78210;BME280;67485;48.816;9.930;2023-02-02T09:24:07;97501.22;;;3.33;100.00
78210;BME280;67485;48.816;9.930;2023-02-02T09:26:33;97501.16;;;3.30;100.00
78210;BME280;67485;48.816;9.930;2023-02-02T09:29:01;97501.16;;;3.30;100.00
78210;BME280;67485;48.816;9.930;2023-02-02T09:31:29;97511.53;;;3.30;100.00
78210;BME280;67485;48.816;9.930;2023-02-02T09:33:59;97498.59;;;3.32;100.00
78210;BME280;67485;48.816;9.930;2023-02-02T09:36:25;97509.88;;;3.35;100.00
78210;BME280;67485;48.816;9.930;2023-02-02T09:38:51;97510.69;;;3.33;100.00
78210;BME280;67485;48.816;9.930;2023-02-02T09:50:15;97542.69;;;3.36;100.00
78210;BME280;67485;48.816;9.930;2023-02-02T09:52:58;97539.25;;;3.34;100.00
78210;BME280;67485;48.816;9.930;2023-02-02T09:55:40;97540.94;;;3.34;100.00
78210;BME280;67485;48.816;9.930;2023-02-02T09:58:25;97537.50;;;3.33;100.00
78210;BME280;67485;48.816;9.930;2023-02-02T10:03:26;97543.50;;;3.31;100.00
78210;BME280;67485;48.816;9.930;2023-02-02T10:05:59;97534.00;;;3.31;100.00
78210;BME280;67485;48.816;9.930;2023-02-02T10:08:42;97541.00;;;3.38;100.00
78210;BME280;67485;48.816;9.930;2023-02-02T10:11:31;97534.91;;;3.33;100.00
78210;BME280;67485;48.816;9.930;2023-02-02T10:14:16;97532.31;;;3.33;100.00
78210;BME280;67485;48.816;9.930;2023-02-02T10:16:45;97547.88;;;3.36;100.00
78210;BME280;67485;48.816;9.930;2023-02-02T10:19:13;97539.25;;;3.34;100.00
78210;BME280;67485;48.816;9.930;2023-02-02T10:21:52;97544.44;;;3.34;100.00
78210;BME280;67485;48.816;9.930;2023-02-02T10:24:21;97547.88;;;3.36;100.00
78210;BME280;67485;48.816;9.930;2023-02-02T10:26:52;97554.81;;;3.37;100.00
78210;BME280;67485;48.816;9.930;2023-02-02T10:40:14;97545.44;;;3.46;100.00
78210;BME280;67485;48.816;9.930;2023-02-02T10:46:04;97551.53;;;3.51;100.00
78210;BME280;67485;48.816;9.930;2023-02-02T10:48:34;97553.31;;;3.53;100.00
78210;BME280;67485;48.816;9.930;2023-02-02T10:51:15;97553.31;;;3.55;100.00
78210;BME280;67485;48.816;9.930;2023-02-02T10:53:47;97553.41;;;3.61;100.00
78210;BME280;67485;48.816;9.930;2023-02-02T10:56:17;97558.66;;;3.67;100.00
78210;BME280;67485;48.816;9.930;2023-02-02T10:59:03;97552.56;;;3.65;100.00
78210;BME280;67485;48.816;9.930;2023-02-02T11:01:30;97547.47;;;3.70;100.00
78210;BME280;67485;48.816;9.930;2023-02-02T11:03:56;97560.44;;;3.71;100.00
78210;BME280;67485;48.816;9.930;2023-02-02T11:06:48;97567.44;;;3.79;100.00
78210;BME280;67485;48.816;9.930;2023-02-02T11:09:18;97564.03;;;3.83;100.00
78210;BME280;67485;48.816;9.930;2023-02-02T11:11:45;97566.66;;;3.86;100.00
78210;BME280;67485;48.816;9.930;2023-02-02T11:14:17;97561.41;;;3.81;100.00
78210;BME280;67485;48.816;9.930;2023-02-02T11:17:00;97566.53;;;3.75;100.00
78210;BME280;67485;48.816;9.930;2023-02-02T11:19:28;97560.44;;;3.71;100.00
78210;BME280;67485;48.816;9.930;2023-02-02T11:21:57;97559.63;;;3.76;100.00
78210;BME280;67485;48.816;9.930;2023-02-02T11:24:26;97562.22;;;3.76;100.00
78210;BME280;67485;48.816;9.930;2023-02-02T11:26:54;97566.50;;;3.73;100.00
78210;BME280;67485;48.816;9.930;2023-02-02T11:29:28;97562.19;;;3.72;100.00
78210;BME280;67485;48.816;9.930;2023-02-02T11:31:55;97570.78;;;3.71;100.00
78210;BME280;67485;48.816;9.930;2023-02-02T11:34:26;97562.19;;;3.72;100.00
78210;BME280;67485;48.816;9.930;2023-02-02T11:39:35;97558.72;;;3.72;100.00
78210;BME280;67485;48.816;9.930;2023-02-02T11:42:17;97564.84;;;3.80;100.00
78210;BME280;67485;48.816;9.930;2023-02-02T11:44:49;97565.66;;;3.75;100.00
78210;BME280;67485;48.816;9.930;2023-02-02T11:47:20;97562.25;;;3.79;100.00
78210;BME280;67485;48.816;9.930;2023-02-02T11:49:49;97566.53;;;3.77;100.00
78210;BME280;67485;48.816;9.930;2023-02-02T11:52:18;97563.09;;;3.76;100.00
78210;BME280;67485;48.816;9.930;2023-02-02T11:54:57;97566.53;;;3.77;100.00
78210;BME280;67485;48.816;9.930;2023-02-02T11:57:26;97560.44;;;3.71;100.00
78210;BME280;67485;48.816;9.930;2023-02-02T12:02:36;97549.19;;;3.71;100.00
78210;BME280;67485;48.816;9.930;2023-02-02T12:07:44;97556.97;;;3.69;100.00
78210;BME280;67485;48.816;9.930;2023-02-02T12:15:18;97548.34;;;3.72;100.00
78210;BME280;67485;48.816;9.930;2023-02-02T12:17:52;97548.44;;;3.80;100.00
78210;BME280;67485;48.816;9.930;2023-02-02T12:21:22;97542.38;;;3.79;100.00
78210;BME280;67485;48.816;9.930;2023-02-02T12:23:52;97551.91;;;3.80;100.00
78210;BME280;67485;48.816;9.930;2023-02-02T12:26:26;97547.59;;;3.81;100.00
78210;BME280;67485;48.816;9.930;2023-02-02T12:29:20;97547.69;;;3.88;100.00
78210;BME280;67485;48.816;9.930;2023-02-02T12:34:40;97545.94;;;3.89;100.00
78210;BME280;67485;48.816;9.930;2023-02-02T12:37:27;97552.88;;;3.92;100.00
78210;BME280;67485;48.816;9.930;2023-02-02T12:42:49;97548.53;;;3.90;100.00
78210;BME280;67485;48.816;9.930;2023-02-02T12:45:31;97556.31;;;3.89;100.00
78210;BME280;67485;48.816;9.930;2023-02-02T12:48:17;97559.72;;;3.83;100.00
78210;BME280;67485;48.816;9.930;2023-02-02T12:56:01;97550.34;;;3.93;100.00
78210;BME280;67485;48.816;9.930;2023-02-02T12:59:09;97558.06;;;3.92;100.00
78210;BME280;67485;48.816;9.930;2023-02-02T13:04:27;97575.34;;;3.89;100.00
78210;BME280;67485;48.816;9.930;2023-02-02T13:10:32;97555.44;;;3.87;100.00
78210;BME280;67485;48.816;9.930;2023-02-02T13:13:10;97573.59;;;3.87;100.00
78210;BME280;67485;48.816;9.930;2023-02-02T13:15:41;97577.88;;;3.85;100.00
78210;BME280;67485;48.816;9.930;2023-02-02T13:18:27;97581.31;;;3.81;100.00
78210;BME280;67485;48.816;9.930;2023-02-02T13:20:58;97577.84;;;3.82;100.00
78210;BME280;67485;48.816;9.930;2023-02-02T13:23:31;97576.94;;;3.78;100.00
78210;BME280;67485;48.816;9.930;2023-02-02T13:31:55;97581.31;;;3.84;100.00
78210;BME280;67485;48.816;9.930;2023-02-02T13:36:49;97597.72;;;3.81;100.00
78210;BME280;67485;48.816;9.930;2023-02-02T13:39:31;97602.03;;;3.81;100.00
78210;BME280;67485;48.816;9.930;2023-02-02T13:41:59;97602.03;;;3.81;100.00
78210;BME280;67485;48.816;9.930;2023-02-02T13:44:37;97609.84;;;3.84;100.00
78210;BME280;67485;48.816;9.930;2023-02-02T13:47:18;97603.81;;;3.83;100.00
78210;BME280;67485;48.816;9.930;2023-02-02T13:49:50;97588.19;;;3.79;100.00
78210;BME280;67485;48.816;9.930;2023-02-02T13:55:33;97613.19;;;3.73;100.00
78210;BME280;67485;48.816;9.930;2023-02-02T13:58:11;97607.09;;;3.73;100.00
78210;BME280;67485;48.816;9.930;2023-02-02T14:00:48;97610.59;;;3.75;100.00
78210;BME280;67485;48.816;9.930;2023-02-02T14:03:37;97612.34;;;3.75;100.00
78210;BME280;67485;48.816;9.930;2023-02-02T14:06:11;97615.78;;;3.73;100.00
78210;BME280;67485;48.816;9.930;2023-02-02T14:08:48;97619.22;;;3.72;100.00
78210;BME280;67485;48.816;9.930;2023-02-02T14:11:20;97619.28;;;3.76;100.00
78210;BME280;67485;48.816;9.930;2023-02-02T14:13:49;97627.91;;;3.75;100.00
78210;BME280;67485;48.816;9.930;2023-02-02T14:19:04;97624.47;;;3.79;100.00
78210;BME280;67485;48.816;9.930;2023-02-02T14:32:01;97639.25;;;3.84;100.00
78210;BME280;67485;48.816;9.930;2023-02-02T14:34:40;97634.94;;;3.85;100.00
78210;BME280;67485;48.816;9.930;2023-02-02T14:43:00;97646.13;;;3.82;100.00
78210;BME280;67485;48.816;9.930;2023-02-02T14:48:40;97645.22;;;3.80;100.00
78210;BME280;67485;48.816;9.930;2023-02-02T14:51:15;97643.56;;;3.84;100.00
78210;BME280;67485;48.816;9.930;2023-02-02T14:53:54;97655.66;;;3.83;100.00
78210;BME280;67485;48.816;9.930;2023-02-02T14:59:36;97657.44;;;3.86;100.00
78210;BME280;67485;48.816;9.930;2023-02-02T15:04:39;97654.75;;;3.80;100.00
78210;BME280;67485;48.816;9.930;2023-02-02T15:09:51;97666.81;;;3.78;100.00
78210;BME280;67485;48.816;9.930;2023-02-02T15:12:38;97664.22;;;3.78;100.00